sensor_id;sensor_type;location;lat;lon;timestamp;temperature;humidity
76855;DHT22;66343;44.588;33.450;2023-04-03T00:01:14;10.90;85.00
76855;DHT22;66343;44.588;33.450;2023-04-03T00:03:43;10.90;84.98
76855;DHT22;66343;44.588;33.450;2023-04-03T00:06:16;10.89;85.04
76855;DHT22;66343;44.588;33.450;2023-04-03T00:08:50;10.89;85.00
76855;DHT22;66343;44.588;33.450;2023-04-03T00:11:22;10.93;84.95
76855;DHT22;66343;44.588;33.450;2023-04-03T00:13:55;10.97;84.83
76855;DHT22;66343;44.588;33.450;2023-04-03T00:16:30;10.98;84.74
76855;DHT22;66343;44.588;33.450;2023-04-03T00:19:00;10.98;84.68
76855;DHT22;66343;44.588;33.450;2023-04-03T00:21:39;11.00;84.65
76855;DHT22;66343;44.588;33.450;2023-04-03T00:24:15;11.00;84.64
76855;DHT22;66343;44.588;33.450;2023-04-03T00:26:46;11.01;84.61
76855;DHT22;66343;44.588;33.450;2023-04-03T00:29:20;11.01;84.61
76855;DHT22;66343;44.588;33.450;2023-04-03T00:31:49;11.02;84.55
76855;DHT22;66343;44.588;33.450;2023-04-03T00:34:25;11.01;84.51
76855;DHT22;66343;44.588;33.450;2023-04-03T00:36:57;11.02;84.45
76855;DHT22;66343;44.588;33.450;2023-04-03T00:39:33;11.03;84.40
76855;DHT22;66343;44.588;33.450;2023-04-03T00:42:03;11.08;84.23
76855;DHT22;66343;44.588;33.450;2023-04-03T00:47:09;11.08;84.07
76855;DHT22;66343;44.588;33.450;2023-04-03T00:49:39;11.10;84.01
76855;DHT22;66343;44.588;33.450;2023-04-03T00:52:13;11.10;84.02
76855;DHT22;66343;44.588;33.450;2023-04-03T00:54:51;11.11;83.97
76855;DHT22;66343;44.588;33.450;2023-04-03T00:57:27;11.13;84.00
76855;DHT22;66343;44.588;33.450;2023-04-03T01:00:00;11.15;83.82
76855;DHT22;66343;44.588;33.450;2023-04-03T01:02:35;11.16;83.69
76855;DHT22;66343;44.588;33.450;2023-04-03T01:05:08;11.18;83.47
76855;DHT22;66343;44.588;33.450;2023-04-03T01:07:46;11.17;83.38
76855;DHT22;66343;44.588;33.450;2023-04-03T01:10:21;11.17;83.52
76855;DHT22;66343;44.588;33.450;2023-04-03T01:12:53;11.19;83.43
76855;DHT22;66343;44.588;33.450;2023-04-03T01:15:29;11.20;83.32
76855;DHT22;66343;44.588;33.450;2023-04-03T01:18:12;11.17;83.25
76855;DHT22;66343;44.588;33.450;2023-04-03T01:24:31;11.20;83.07
76855;DHT22;66343;44.588;33.450;2023-04-03T01:27:08;11.23;82.82
76855;DHT22;66343;44.588;33.450;2023-04-03T01:29:43;11.23;82.91
76855;DHT22;66343;44.588;33.450;2023-04-03T01:32:15;11.22;82.89
76855;DHT22;66343;44.588;33.450;2023-04-03T01:34:47;11.23;82.85
76855;DHT22;66343;44.588;33.450;2023-04-03T01:37:17;11.24;82.88
76855;DHT22;66343;44.588;33.450;2023-04-03T01:40:00;11.20;82.84
76855;DHT22;66343;44.588;33.450;2023-04-03T01:42:29;11.18;82.96
76855;DHT22;66343;44.588;33.450;2023-04-03T01:44:58;11.17;82.84
76855;DHT22;66343;44.588;33.450;2023-04-03T01:47:33;11.17;83.04
76855;DHT22;66343;44.588;33.450;2023-04-03T01:50:12;11.15;83.00
76855;DHT22;66343;44.588;33.450;2023-04-03T01:52:44;11.16;82.90
76855;DHT22;66343;44.588;33.450;2023-04-03T01:55:17;11.14;82.94
76855;DHT22;66343;44.588;33.450;2023-04-03T01:57:49;11.13;82.98
76855;DHT22;66343;44.588;33.450;2023-04-03T02:00:22;11.11;83.10
76855;DHT22;66343;44.588;33.450;2023-04-03T02:02:54;11.11;83.13
76855;DHT22;66343;44.588;33.450;2023-04-03T02:05:39;11.10;83.13
76855;DHT22;66343;44.588;33.450;2023-04-03T02:08:15;11.10;83.17
76855;DHT22;66343;44.588;33.450;2023-04-03T02:10:50;11.12;83.16
76855;DHT22;66343;44.588;33.450;2023-04-03T02:13:25;11.12;83.08
76855;DHT22;66343;44.588;33.450;2023-04-03T02:15:59;11.11;82.94
76855;DHT22;66343;44.588;33.450;2023-04-03T02:18:35;11.13;82.96
76855;DHT22;66343;44.588;33.450;2023-04-03T02:21:08;11.15;82.82
76855;DHT22;66343;44.588;33.450;2023-04-03T02:23:43;11.13;82.84
76855;DHT22;66343;44.588;33.450;2023-04-03T02:26:17;11.11;82.98
76855;DHT22;66343;44.588;33.450;2023-04-03T02:28:52;11.12;82.94
76855;DHT22;66343;44.588;33.450;2023-04-03T02:31:22;11.09;83.04
76855;DHT22;66343;44.588;33.450;2023-04-03T02:33:53;11.11;82.97
76855;DHT22;66343;44.588;33.450;2023-04-03T02:36:26;11.11;82.94
76855;DHT22;66343;44.588;33.450;2023-04-03T02:38:59;11.11;82.86
76855;DHT22;66343;44.588;33.450;2023-04-03T02:41:34;11.12;82.75
76855;DHT22;66343;44.588;33.450;2023-04-03T02:44:12;11.09;82.68
76855;DHT22;66343;44.588;33.450;2023-04-03T02:46:44;11.13;82.60
76855;DHT22;66343;44.588;33.450;2023-04-03T02:49:17;11.17;82.39
76855;DHT22;66343;44.588;33.450;2023-04-03T02:51:52;11.15;82.32
76855;DHT22;66343;44.588;33.450;2023-04-03T02:54:25;11.14;82.23
76855;DHT22;66343;44.588;33.450;2023-04-03T02:57:04;11.14;82.25
76855;DHT22;66343;44.588;33.450;2023-04-03T02:59:38;11.15;82.25
76855;DHT22;66343;44.588;33.450;2023-04-03T03:02:16;11.14;81.90
76855;DHT22;66343;44.588;33.450;2023-04-03T03:04:50;11.15;81.97
76855;DHT22;66343;44.588;33.450;2023-04-03T03:07:19;11.13;81.83
76855;DHT22;66343;44.588;33.450;2023-04-03T03:09:53;11.17;81.75
76855;DHT22;66343;44.588;33.450;2023-04-03T03:12:25;11.17;81.71
76855;DHT22;66343;44.588;33.450;2023-04-03T03:14:56;11.22;81.36
76855;DHT22;66343;44.588;33.450;2023-04-03T03:17:28;11.22;81.36
76855;DHT22;66343;44.588;33.450;2023-04-03T03:19:58;11.24;81.18
76855;DHT22;66343;44.588;33.450;2023-04-03T03:22:31;11.20;81.29
76855;DHT22;66343;44.588;33.450;2023-04-03T03:25:03;11.20;81.43
76855;DHT22;66343;44.588;33.450;2023-04-03T03:27:33;11.25;81.24
76855;DHT22;66343;44.588;33.450;2023-04-03T03:30:05;11.25;81.18
76855;DHT22;66343;44.588;33.450;2023-04-03T03:32:36;11.23;81.31
76855;DHT22;66343;44.588;33.450;2023-04-03T03:35:10;11.22;81.46
76855;DHT22;66343;44.588;33.450;2023-04-03T03:37:40;11.19;81.39
76855;DHT22;66343;44.588;33.450;2023-04-03T03:40:17;11.23;81.08
76855;DHT22;66343;44.588;33.450;2023-04-03T03:42:48;11.23;81.16
76855;DHT22;66343;44.588;33.450;2023-04-03T03:45:21;11.23;81.02
76855;DHT22;66343;44.588;33.450;2023-04-03T03:47:50;11.25;80.81
76855;DHT22;66343;44.588;33.450;2023-04-03T03:50:20;11.27;80.65
76855;DHT22;66343;44.588;33.450;2023-04-03T03:52:54;11.29;80.49
76855;DHT22;66343;44.588;33.450;2023-04-03T03:55:23;11.30;80.51
76855;DHT22;66343;44.588;33.450;2023-04-03T03:57:58;11.31;80.48
76855;DHT22;66343;44.588;33.450;2023-04-03T04:00:31;11.33;80.41
76855;DHT22;66343;44.588;33.450;2023-04-03T04:03:03;11.39;80.14
76855;DHT22;66343;44.588;33.450;2023-04-03T04:05:37;11.42;80.06
76855;DHT22;66343;44.588;33.450;2023-04-03T04:08:09;11.48;79.77
76855;DHT22;66343;44.588;33.450;2023-04-03T04:10:41;11.48;79.77
76855;DHT22;66343;44.588;33.450;2023-04-03T04:13:18;11.53;79.36
76855;DHT22;66343;44.588;33.450;2023-04-03T04:15:50;11.56;79.27
76855;DHT22;66343;44.588;33.450;2023-04-03T04:18:20;11.56;78.96
76855;DHT22;66343;44.588;33.450;2023-04-03T04:20:56;11.57;78.94
76855;DHT22;66343;44.588;33.450;2023-04-03T04:23:31;11.59;78.79
76855;DHT22;66343;44.588;33.450;2023-04-03T04:26:02;11.63;78.58
76855;DHT22;66343;44.588;33.450;2023-04-03T04:28:35;11.62;78.59
76855;DHT22;66343;44.588;33.450;2023-04-03T04:31:06;11.63;78.54
76855;DHT22;66343;44.588;33.450;2023-04-03T04:33:38;11.62;78.53
76855;DHT22;66343;44.588;33.450;2023-04-03T04:36:17;11.64;78.44
76855;DHT22;66343;44.588;33.450;2023-04-03T04:38:47;11.68;78.35
76855;DHT22;66343;44.588;33.450;2023-04-03T04:41:20;11.74;78.24
76855;DHT22;66343;44.588;33.450;2023-04-03T04:43:53;11.76;78.28
76855;DHT22;66343;44.588;33.450;2023-04-03T04:46:26;11.81;78.18
76855;DHT22;66343;44.588;33.450;2023-04-03T04:48:59;11.88;78.11
76855;DHT22;66343;44.588;33.450;2023-04-03T04:51:32;11.93;77.96
76855;DHT22;66343;44.588;33.450;2023-04-03T04:54:21;11.98;77.75
76855;DHT22;66343;44.588;33.450;2023-04-03T04:56:57;12.11;77.24
76855;DHT22;66343;44.588;33.450;2023-04-03T04:59:27;12.16;77.00
76855;DHT22;66343;44.588;33.450;2023-04-03T05:02:04;12.21;76.66
76855;DHT22;66343;44.588;33.450;2023-04-03T05:04:35;12.22;76.54
76855;DHT22;66343;44.588;33.450;2023-04-03T05:07:12;12.26;76.44
76855;DHT22;66343;44.588;33.450;2023-04-03T05:09:44;12.29;76.02
76855;DHT22;66343;44.588;33.450;2023-04-03T05:12:17;12.27;75.66
76855;DHT22;66343;44.588;33.450;2023-04-03T05:14:55;12.29;75.36
76855;DHT22;66343;44.588;33.450;2023-04-03T05:17:26;12.30;75.46
76855;DHT22;66343;44.588;33.450;2023-04-03T05:19:57;12.37;75.20
76855;DHT22;66343;44.588;33.450;2023-04-03T05:22:34;12.41;74.47
76855;DHT22;66343;44.588;33.450;2023-04-03T05:25:09;12.38;74.65
76855;DHT22;66343;44.588;33.450;2023-04-03T05:27:41;12.42;74.47
76855;DHT22;66343;44.588;33.450;2023-04-03T05:30:16;12.46;74.15
76855;DHT22;66343;44.588;33.450;2023-04-03T05:32:50;12.56;73.57
76855;DHT22;66343;44.588;33.450;2023-04-03T05:35:29;12.64;72.93
76855;DHT22;66343;44.588;33.450;2023-04-03T05:38:05;12.59;73.22
76855;DHT22;66343;44.588;33.450;2023-04-03T05:40:35;12.64;72.41
76855;DHT22;66343;44.588;33.450;2023-04-03T05:43:07;12.71;72.58
76855;DHT22;66343;44.588;33.450;2023-04-03T05:45:42;12.74;72.55
76855;DHT22;66343;44.588;33.450;2023-04-03T05:48:17;12.74;72.75
76855;DHT22;66343;44.588;33.450;2023-04-03T05:50:48;12.79;72.44
76855;DHT22;66343;44.588;33.450;2023-04-03T05:53:31;12.84;72.27
76855;DHT22;66343;44.588;33.450;2023-04-03T05:56:07;12.84;72.33
76855;DHT22;66343;44.588;33.450;2023-04-03T05:59:04;12.85;72.67
76855;DHT22;66343;44.588;33.450;2023-04-03T06:01:35;12.82;71.92
76855;DHT22;66343;44.588;33.450;2023-04-03T06:04:04;12.86;72.18
76855;DHT22;66343;44.588;33.450;2023-04-03T06:06:54;12.90;72.36
76855;DHT22;66343;44.588;33.450;2023-04-03T06:09:27;12.89;72.45
76855;DHT22;66343;44.588;33.450;2023-04-03T06:12:02;12.84;72.55
76855;DHT22;66343;44.588;33.450;2023-04-03T06:14:35;12.80;72.35
76855;DHT22;66343;44.588;33.450;2023-04-03T06:17:05;12.87;72.09
76855;DHT22;66343;44.588;33.450;2023-04-03T06:19:34;12.91;70.97
76855;DHT22;66343;44.588;33.450;2023-04-03T06:22:05;12.92;71.44
76855;DHT22;66343;44.588;33.450;2023-04-03T06:24:38;13.03;71.41
76855;DHT22;66343;44.588;33.450;2023-04-03T06:27:09;13.03;71.29
76855;DHT22;66343;44.588;33.450;2023-04-03T06:29:42;13.07;71.22
76855;DHT22;66343;44.588;33.450;2023-04-03T06:32:16;13.07;71.22
76855;DHT22;66343;44.588;33.450;2023-04-03T06:34:48;13.00;71.25
76855;DHT22;66343;44.588;33.450;2023-04-03T06:37:21;13.01;71.25
76855;DHT22;66343;44.588;33.450;2023-04-03T06:39:50;13.12;71.23
76855;DHT22;66343;44.588;33.450;2023-04-03T06:42:20;13.23;70.86
76855;DHT22;66343;44.588;33.450;2023-04-03T06:44:59;13.21;70.53
76855;DHT22;66343;44.588;33.450;2023-04-03T06:47:34;13.16;70.00
76855;DHT22;66343;44.588;33.450;2023-04-03T06:50:04;13.11;69.86
76855;DHT22;66343;44.588;33.450;2023-04-03T06:52:36;13.10;71.06
76855;DHT22;66343;44.588;33.450;2023-04-03T06:55:06;13.15;71.18
76855;DHT22;66343;44.588;33.450;2023-04-03T06:57:36;13.22;70.61
76855;DHT22;66343;44.588;33.450;2023-04-03T07:00:06;13.30;70.34
76855;DHT22;66343;44.588;33.450;2023-04-03T07:02:36;13.34;69.44
76855;DHT22;66343;44.588;33.450;2023-04-03T07:05:11;13.34;68.77
76855;DHT22;66343;44.588;33.450;2023-04-03T07:07:45;13.34;69.20
76855;DHT22;66343;44.588;33.450;2023-04-03T07:10:16;13.25;69.77
76855;DHT22;66343;44.588;33.450;2023-04-03T07:12:46;13.32;68.70
76855;DHT22;66343;44.588;33.450;2023-04-03T07:15:18;13.36;69.84
76855;DHT22;66343;44.588;33.450;2023-04-03T07:17:50;13.35;70.42
76855;DHT22;66343;44.588;33.450;2023-04-03T07:20:19;13.34;71.13
76855;DHT22;66343;44.588;33.450;2023-04-03T07:22:53;13.24;71.22
76855;DHT22;66343;44.588;33.450;2023-04-03T07:25:26;13.17;71.77
76855;DHT22;66343;44.588;33.450;2023-04-03T07:27:56;13.12;71.92
76855;DHT22;66343;44.588;33.450;2023-04-03T07:30:29;13.15;71.84
76855;DHT22;66343;44.588;33.450;2023-04-03T07:33:01;13.16;71.56
76855;DHT22;66343;44.588;33.450;2023-04-03T07:35:35;13.20;71.49
76855;DHT22;66343;44.588;33.450;2023-04-03T07:38:08;13.23;71.54
76855;DHT22;66343;44.588;33.450;2023-04-03T07:40:45;13.24;71.87
76855;DHT22;66343;44.588;33.450;2023-04-03T07:43:18;13.23;71.70
76855;DHT22;66343;44.588;33.450;2023-04-03T07:45:49;13.25;71.87
76855;DHT22;66343;44.588;33.450;2023-04-03T07:48:21;13.27;71.67
76855;DHT22;66343;44.588;33.450;2023-04-03T07:50:52;13.21;71.47
76855;DHT22;66343;44.588;33.450;2023-04-03T07:53:24;13.32;71.84
76855;DHT22;66343;44.588;33.450;2023-04-03T07:55:54;13.24;72.02
76855;DHT22;66343;44.588;33.450;2023-04-03T07:58:26;13.18;72.70
76855;DHT22;66343;44.588;33.450;2023-04-03T08:00:59;13.21;72.40
76855;DHT22;66343;44.588;33.450;2023-04-03T08:03:29;13.25;71.32
76855;DHT22;66343;44.588;33.450;2023-04-03T08:06:04;13.31;71.61
76855;DHT22;66343;44.588;33.450;2023-04-03T08:08:42;13.35;71.58
76855;DHT22;66343;44.588;33.450;2023-04-03T08:11:11;13.31;71.74
76855;DHT22;66343;44.588;33.450;2023-04-03T08:13:44;13.33;71.09
76855;DHT22;66343;44.588;33.450;2023-04-03T08:16:18;13.38;70.61
76855;DHT22;66343;44.588;33.450;2023-04-03T08:18:54;13.33;70.90
76855;DHT22;66343;44.588;33.450;2023-04-03T08:21:27;13.34;71.26
76855;DHT22;66343;44.588;33.450;2023-04-03T08:23:57;13.34;71.28
76855;DHT22;66343;44.588;33.450;2023-04-03T08:26:27;13.29;71.21
76855;DHT22;66343;44.588;33.450;2023-04-03T08:29:01;13.23;71.47
76855;DHT22;66343;44.588;33.450;2023-04-03T08:31:31;13.27;72.29
76855;DHT22;66343;44.588;33.450;2023-04-03T08:34:02;13.50;70.78
76855;DHT22;66343;44.588;33.450;2023-04-03T08:36:34;13.65;70.26
76855;DHT22;66343;44.588;33.450;2023-04-03T08:39:11;13.69;69.62
76855;DHT22;66343;44.588;33.450;2023-04-03T08:41:45;13.66;69.35
76855;DHT22;66343;44.588;33.450;2023-04-03T08:44:24;13.81;68.66
76855;DHT22;66343;44.588;33.450;2023-04-03T08:47:18;13.79;69.16
76855;DHT22;66343;44.588;33.450;2023-04-03T08:52:33;13.98;68.52
76855;DHT22;66343;44.588;33.450;2023-04-03T08:55:28;13.90;68.82
76855;DHT22;66343;44.588;33.450;2023-04-03T09:03:46;13.94;68.08
76855;DHT22;66343;44.588;33.450;2023-04-03T09:06:33;14.05;67.78
76855;DHT22;66343;44.588;33.450;2023-04-03T09:09:17;13.91;68.41
76855;DHT22;66343;44.588;33.450;2023-04-03T09:17:32;13.70;70.71
76855;DHT22;66343;44.588;33.450;2023-04-03T09:23:33;13.64;71.03
76855;DHT22;66343;44.588;33.450;2023-04-03T09:26:15;13.73;70.63
76855;DHT22;66343;44.588;33.450;2023-04-03T09:28:45;13.79;70.67
76855;DHT22;66343;44.588;33.450;2023-04-03T09:31:42;13.75;70.26
76855;DHT22;66343;44.588;33.450;2023-04-03T09:34:31;13.61;70.33
76855;DHT22;66343;44.588;33.450;2023-04-03T09:37:10;13.71;71.17
76855;DHT22;66343;44.588;33.450;2023-04-03T09:39:55;13.71;71.23
76855;DHT22;66343;44.588;33.450;2023-04-03T09:42:33;13.90;71.10
76855;DHT22;66343;44.588;33.450;2023-04-03T09:45:28;14.01;70.53
76855;DHT22;66343;44.588;33.450;2023-04-03T09:48:16;14.12;69.52
76855;DHT22;66343;44.588;33.450;2023-04-03T09:50:59;14.27;69.16
76855;DHT22;66343;44.588;33.450;2023-04-03T09:53:41;14.41;68.22
76855;DHT22;66343;44.588;33.450;2023-04-03T09:58:52;13.95;69.71
76855;DHT22;66343;44.588;33.450;2023-04-03T10:01:38;13.96;69.79
76855;DHT22;66343;44.588;33.450;2023-04-03T10:04:16;14.05;69.49
76855;DHT22;66343;44.588;33.450;2023-04-03T10:06:51;14.06;69.22
76855;DHT22;66343;44.588;33.450;2023-04-03T10:09:31;14.04;69.47
76855;DHT22;66343;44.588;33.450;2023-04-03T10:12:17;14.03;68.96
76855;DHT22;66343;44.588;33.450;2023-04-03T10:15:01;14.29;67.40
76855;DHT22;66343;44.588;33.450;2023-04-03T10:20:27;14.42;67.01
76855;DHT22;66343;44.588;33.450;2023-04-03T10:23:18;14.56;66.31
76855;DHT22;66343;44.588;33.450;2023-04-03T10:29:02;14.92;66.19
76855;DHT22;66343;44.588;33.450;2023-04-03T10:34:49;14.97;64.11
76855;DHT22;66343;44.588;33.450;2023-04-03T10:38:11;14.87;65.08
76855;DHT22;66343;44.588;33.450;2023-04-03T10:40:57;14.77;65.61
76855;DHT22;66343;44.588;33.450;2023-04-03T10:43:39;14.74;65.37
76855;DHT22;66343;44.588;33.450;2023-04-03T10:46:17;14.78;64.69
76855;DHT22;66343;44.588;33.450;2023-04-03T10:49:17;14.68;65.88
76855;DHT22;66343;44.588;33.450;2023-04-03T10:52:22;14.67;66.04
76855;DHT22;66343;44.588;33.450;2023-04-03T10:57:50;15.19;64.27
76855;DHT22;66343;44.588;33.450;2023-04-03T11:00:44;15.33;63.24
76855;DHT22;66343;44.588;33.450;2023-04-03T11:03:30;15.52;63.55
76855;DHT22;66343;44.588;33.450;2023-04-03T11:06:05;15.72;63.31
76855;DHT22;66343;44.588;33.450;2023-04-03T11:09:03;15.82;61.49
76855;DHT22;66343;44.588;33.450;2023-04-03T11:11:38;16.14;61.21
76855;DHT22;66343;44.588;33.450;2023-04-03T11:14:44;15.96;61.94
76855;DHT22;66343;44.588;33.450;2023-04-03T11:17:38;15.93;62.06
76855;DHT22;66343;44.588;33.450;2023-04-03T11:20:19;15.98;62.15
76855;DHT22;66343;44.588;33.450;2023-04-03T11:25:34;16.35;61.02
76855;DHT22;66343;44.588;33.450;2023-04-03T11:28:12;16.34;60.64
76855;DHT22;66343;44.588;33.450;2023-04-03T11:36:51;16.39;60.67
76855;DHT22;66343;44.588;33.450;2023-04-03T11:39:35;16.44;59.80
76855;DHT22;66343;44.588;33.450;2023-04-03T11:42:34;16.66;59.52
76855;DHT22;66343;44.588;33.450;2023-04-03T11:57:49;16.84;58.35
76855;DHT22;66343;44.588;33.450;2023-04-03T12:03:34;17.10;57.50
76855;DHT22;66343;44.588;33.450;2023-04-03T12:18:58;16.98;58.27
76855;DHT22;66343;44.588;33.450;2023-04-03T12:21:14;16.64;59.37
76855;DHT22;66343;44.588;33.450;2023-04-03T12:29:39;16.14;61.27
76855;DHT22;66343;44.588;33.450;2023-04-03T12:32:35;16.03;61.18
76855;DHT22;66343;44.588;33.450;2023-04-03T12:35:24;15.86;62.18
76855;DHT22;66343;44.588;33.450;2023-04-03T12:38:40;16.27;60.42
76855;DHT22;66343;44.588;33.450;2023-04-03T12:41:29;16.78;59.07
76855;DHT22;66343;44.588;33.450;2023-04-03T12:47:00;17.84;55.12
76855;DHT22;66343;44.588;33.450;2023-04-03T12:49:40;18.00;54.52
76855;DHT22;66343;44.588;33.450;2023-04-03T12:52:37;18.05;54.35
76855;DHT22;66343;44.588;33.450;2023-04-03T12:55:15;18.12;53.99
76855;DHT22;66343;44.588;33.450;2023-04-03T12:57:47;18.33;53.72
76855;DHT22;66343;44.588;33.450;2023-04-03T13:00:31;18.35;52.61
76855;DHT22;66343;44.588;33.450;2023-04-03T13:03:06;18.40;52.76
76855;DHT22;66343;44.588;33.450;2023-04-03T13:05:40;18.23;53.34
76855;DHT22;66343;44.588;33.450;2023-04-03T13:08:15;18.39;52.83
76855;DHT22;66343;44.588;33.450;2023-04-03T13:10:59;18.12;53.17
76855;DHT22;66343;44.588;33.450;2023-04-03T13:13:32;18.26;52.91
76855;DHT22;66343;44.588;33.450;2023-04-03T13:16:11;18.08;53.52
76855;DHT22;66343;44.588;33.450;2023-04-03T13:18:42;18.07;54.00
76855;DHT22;66343;44.588;33.450;2023-04-03T13:21:15;18.03;53.62
76855;DHT22;66343;44.588;33.450;2023-04-03T13:23:51;18.02;53.38
76855;DHT22;66343;44.588;33.450;2023-04-03T13:26:39;17.58;55.10
76855;DHT22;66343;44.588;33.450;2023-04-03T13:29:36;17.66;55.09
76855;DHT22;66343;44.588;33.450;2023-04-03T13:32:06;17.55;55.12
76855;DHT22;66343;44.588;33.450;2023-04-03T13:34:43;17.43;55.59
76855;DHT22;66343;44.588;33.450;2023-04-03T13:37:25;17.70;54.71
76855;DHT22;66343;44.588;33.450;2023-04-03T13:42:40;17.82;54.49
76855;DHT22;66343;44.588;33.450;2023-04-03T13:45:21;18.12;53.75
76855;DHT22;66343;44.588;33.450;2023-04-03T13:48:15;17.97;53.78
76855;DHT22;66343;44.588;33.450;2023-04-03T13:53:57;17.93;53.87
76855;DHT22;66343;44.588;33.450;2023-04-03T13:56:38;17.41;55.47
76855;DHT22;66343;44.588;33.450;2023-04-03T14:01:54;17.17;56.53
76855;DHT22;66343;44.588;33.450;2023-04-03T14:04:32;17.03;57.46
76855;DHT22;66343;44.588;33.450;2023-04-03T14:07:05;17.16;57.46
76855;DHT22;66343;44.588;33.450;2023-04-03T14:09:36;17.32;56.30
76855;DHT22;66343;44.588;33.450;2023-04-03T14:15:12;17.13;56.75
76855;DHT22;66343;44.588;33.450;2023-04-03T14:17:45;16.91;57.48
76855;DHT22;66343;44.588;33.450;2023-04-03T14:20:22;16.81;58.01
76855;DHT22;66343;44.588;33.450;2023-04-03T14:22:56;16.89;58.29
76855;DHT22;66343;44.588;33.450;2023-04-03T14:25:32;16.95;57.50
76855;DHT22;66343;44.588;33.450;2023-04-03T14:28:22;16.59;58.97
76855;DHT22;66343;44.588;33.450;2023-04-03T14:30:54;16.48;59.34
76855;DHT22;66343;44.588;33.450;2023-04-03T14:33:26;16.41;59.33
76855;DHT22;66343;44.588;33.450;2023-04-03T14:36:01;16.22;60.06
76855;DHT22;66343;44.588;33.450;2023-04-03T14:38:33;16.01;60.98
76855;DHT22;66343;44.588;33.450;2023-04-03T14:41:04;15.90;61.77
76855;DHT22;66343;44.588;33.450;2023-04-03T14:43:47;15.72;62.62
76855;DHT22;66343;44.588;33.450;2023-04-03T14:46:30;15.65;62.60
76855;DHT22;66343;44.588;33.450;2023-04-03T14:49:23;15.55;63.22
76855;DHT22;66343;44.588;33.450;2023-04-03T14:51:56;15.48;63.45
76855;DHT22;66343;44.588;33.450;2023-04-03T14:54:28;15.61;62.97
76855;DHT22;66343;44.588;33.450;2023-04-03T14:57:05;15.55;63.22
76855;DHT22;66343;44.588;33.450;2023-04-03T14:59:44;15.54;63.44
76855;DHT22;66343;44.588;33.450;2023-04-03T15:05:04;15.75;62.57
76855;DHT22;66343;44.588;33.450;2023-04-03T15:07:39;15.87;62.16
76855;DHT22;66343;44.588;33.450;2023-04-03T15:10:21;15.90;61.94
76855;DHT22;66343;44.588;33.450;2023-04-03T15:12:55;15.69;62.59
76855;DHT22;66343;44.588;33.450;2023-04-03T15:15:28;15.72;62.36
76855;DHT22;66343;44.588;33.450;2023-04-03T15:18:04;15.81;62.28
76855;DHT22;66343;44.588;33.450;2023-04-03T15:20:36;15.75;62.40
76855;DHT22;66343;44.588;33.450;2023-04-03T15:23:06;15.77;62.27
76855;DHT22;66343;44.588;33.450;2023-04-03T15:25:38;15.73;62.38
76855;DHT22;66343;44.588;33.450;2023-04-03T15:28:37;15.69;62.53
76855;DHT22;66343;44.588;33.450;2023-04-03T15:31:09;15.74;62.55
76855;DHT22;66343;44.588;33.450;2023-04-03T15:33:42;15.86;62.08
76855;DHT22;66343;44.588;33.450;2023-04-03T15:36:14;15.77;62.53
76855;DHT22;66343;44.588;33.450;2023-04-03T15:39:04;15.71;62.70
76855;DHT22;66343;44.588;33.450;2023-04-03T15:41:37;15.66;62.79
76855;DHT22;66343;44.588;33.450;2023-04-03T15:44:09;15.48;63.29
76855;DHT22;66343;44.588;33.450;2023-04-03T15:46:47;15.33;63.76
76855;DHT22;66343;44.588;33.450;2023-04-03T15:49:20;15.14;64.48
76855;DHT22;66343;44.588;33.450;2023-04-03T15:51:53;14.97;65.08
76855;DHT22;66343;44.588;33.450;2023-04-03T15:54:25;14.82;65.66
76855;DHT22;66343;44.588;33.450;2023-04-03T15:56:56;14.71;66.06
76855;DHT22;66343;44.588;33.450;2023-04-03T15:59:32;14.52;67.00
76855;DHT22;66343;44.588;33.450;2023-04-03T16:02:04;14.45;67.40
76855;DHT22;66343;44.588;33.450;2023-04-03T16:04:56;14.38;67.64
76855;DHT22;66343;44.588;33.450;2023-04-03T16:07:30;14.32;67.93
76855;DHT22;66343;44.588;33.450;2023-04-03T16:10:01;14.20;68.45
76855;DHT22;66343;44.588;33.450;2023-04-03T16:12:30;14.07;68.89
76855;DHT22;66343;44.588;33.450;2023-04-03T16:14:59;13.99;69.31
76855;DHT22;66343;44.588;33.450;2023-04-03T16:17:32;13.92;69.52
76855;DHT22;66343;44.588;33.450;2023-04-03T16:20:06;13.90;69.79
76855;DHT22;66343;44.588;33.450;2023-04-03T16:22:39;13.86;69.93
76855;DHT22;66343;44.588;33.450;2023-04-03T16:25:11;13.80;70.20
76855;DHT22;66343;44.588;33.450;2023-04-03T16:27:40;13.75;70.38
76855;DHT22;66343;44.588;33.450;2023-04-03T16:30:13;13.68;70.71
76855;DHT22;66343;44.588;33.450;2023-04-03T16:32:46;13.54;71.29
76855;DHT22;66343;44.588;33.450;2023-04-03T16:35:19;13.49;71.31
76855;DHT22;66343;44.588;33.450;2023-04-03T16:37:48;13.37;71.62
76855;DHT22;66343;44.588;33.450;2023-04-03T16:40:20;13.30;71.95
76855;DHT22;66343;44.588;33.450;2023-04-03T16:42:48;13.21;72.43
76855;DHT22;66343;44.588;33.450;2023-04-03T16:45:18;13.10;73.13
76855;DHT22;66343;44.588;33.450;2023-04-03T16:47:47;13.10;73.41
76855;DHT22;66343;44.588;33.450;2023-04-03T16:50:22;13.09;73.50
76855;DHT22;66343;44.588;33.450;2023-04-03T16:52:59;13.10;73.64
76855;DHT22;66343;44.588;33.450;2023-04-03T16:55:28;13.04;73.81
76855;DHT22;66343;44.588;33.450;2023-04-03T16:58:00;13.02;73.93
76855;DHT22;66343;44.588;33.450;2023-04-03T17:00:35;12.96;73.71
76855;DHT22;66343;44.588;33.450;2023-04-03T17:03:04;12.93;73.91
76855;DHT22;66343;44.588;33.450;2023-04-03T17:05:35;12.92;73.97
76855;DHT22;66343;44.588;33.450;2023-04-03T17:08:05;12.99;73.72
76855;DHT22;66343;44.588;33.450;2023-04-03T17:10:35;12.94;73.82
76855;DHT22;66343;44.588;33.450;2023-04-03T17:13:05;13.01;73.49
76855;DHT22;66343;44.588;33.450;2023-04-03T17:15:38;13.02;73.16
76855;DHT22;66343;44.588;33.450;2023-04-03T17:18:11;13.07;72.93
76855;DHT22;66343;44.588;33.450;2023-04-03T17:20:41;13.05;73.09
76855;DHT22;66343;44.588;33.450;2023-04-03T17:23:19;13.04;73.15
76855;DHT22;66343;44.588;33.450;2023-04-03T17:25:53;12.97;73.61
76855;DHT22;66343;44.588;33.450;2023-04-03T17:28:25;12.96;73.44
76855;DHT22;66343;44.588;33.450;2023-04-03T17:31:02;12.96;73.38
76855;DHT22;66343;44.588;33.450;2023-04-03T17:33:31;12.97;73.51
76855;DHT22;66343;44.588;33.450;2023-04-03T17:36:04;12.95;73.70
76855;DHT22;66343;44.588;33.450;2023-04-03T17:38:36;12.90;74.06
76855;DHT22;66343;44.588;33.450;2023-04-03T17:41:10;12.88;74.24
76855;DHT22;66343;44.588;33.450;2023-04-03T17:43:42;12.81;74.68
76855;DHT22;66343;44.588;33.450;2023-04-03T17:46:12;12.84;74.64